createdAt,value
2018-09-27T00:01:41.672Z,2.40
2018-09-27T00:04:09.942Z,2.40
2018-09-27T00:06:38.023Z,2.37
2018-09-27T00:09:06.839Z,2.58
2018-09-27T00:11:34.959Z,2.60
2018-09-27T00:14:03.083Z,2.42
2018-09-27T00:16:31.183Z,2.30
2018-09-27T00:18:59.405Z,2.62
2018-09-27T00:21:27.664Z,1.92
2018-09-27T00:23:55.951Z,2.10
2018-09-27T00:26:24.023Z,2.30
2018-09-27T00:28:52.207Z,2.35
2018-09-27T00:31:20.282Z,2.20
2018-09-27T00:33:49.345Z,2.70
2018-09-27T00:36:17.447Z,2.47
2018-09-27T00:38:46.166Z,2.75
2018-09-27T00:41:14.875Z,2.60
2018-09-27T00:43:43.032Z,2.55
2018-09-27T00:46:11.275Z,2.65
2018-09-27T00:48:39.451Z,2.70
2018-09-27T00:51:07.643Z,2.62
2018-09-27T00:53:36.216Z,2.27
2018-09-27T00:56:04.283Z,2.75
2018-09-27T00:58:32.511Z,2.58
2018-09-27T01:01:00.756Z,2.80
2018-09-27T01:03:29.007Z,2.52
2018-09-27T01:05:57.225Z,2.65
2018-09-27T01:08:25.315Z,2.90
2018-09-27T01:10:53.415Z,2.77
2018-09-27T01:13:21.550Z,3.33
2018-09-27T01:15:49.859Z,2.72
2018-09-27T01:18:17.947Z,3.08
2018-09-27T01:20:46.379Z,3.30
2018-09-27T01:23:15.206Z,2.60
2018-09-27T01:25:43.292Z,2.77
2018-09-27T01:28:11.367Z,3.45
2018-09-27T01:30:39.515Z,3.17
2018-09-27T01:33:07.915Z,2.90
2018-09-27T01:35:36.479Z,2.70
2018-09-27T01:38:04.625Z,2.98
2018-09-27T01:40:32.768Z,2.80
2018-09-27T01:43:01.049Z,2.95
2018-09-27T01:45:29.174Z,2.90
2018-09-27T01:47:57.252Z,3.12
2018-09-27T01:50:25.566Z,2.67
2018-09-27T01:52:53.811Z,2.58
2018-09-27T01:55:22.000Z,2.90
2018-09-27T01:57:50.068Z,2.72
2018-09-27T02:00:18.679Z,2.65
2018-09-27T02:02:47.041Z,2.83
2018-09-27T02:05:15.176Z,2.77
2018-09-27T02:07:43.264Z,3.10
2018-09-27T02:10:11.559Z,2.62
2018-09-27T02:12:39.667Z,2.70
2018-09-27T02:15:07.756Z,2.45
2018-09-27T02:17:35.920Z,2.50
2018-09-27T02:20:04.079Z,2.50
2018-09-27T02:22:32.171Z,2.50
2018-09-27T02:25:00.295Z,2.60
2018-09-27T02:27:28.431Z,2.80
2018-09-27T02:29:57.259Z,2.87
2018-09-27T02:32:25.357Z,2.75
2018-09-27T02:34:54.146Z,2.50
2018-09-27T02:37:22.343Z,2.50
2018-09-27T02:39:50.685Z,2.37
2018-09-27T02:42:18.894Z,2.50
2018-09-27T02:44:47.563Z,2.80
2018-09-27T02:47:15.918Z,3.37
2018-09-27T02:49:44.124Z,2.87
2018-09-27T02:52:12.511Z,3.02
2018-09-27T02:54:40.680Z,3.02
2018-09-27T02:57:08.748Z,3.17
2018-09-27T02:59:36.832Z,3.52
2018-09-27T03:02:05.398Z,3.37
2018-09-27T03:04:33.612Z,3.45
2018-09-27T03:07:01.952Z,2.98
2018-09-27T03:09:34.542Z,3.00
2018-09-27T03:12:02.676Z,3.60
2018-09-27T03:14:30.938Z,3.30
2018-09-27T03:16:59.243Z,2.75
2018-09-27T03:19:27.329Z,2.98
2018-09-27T03:21:55.580Z,3.80
2018-09-27T03:24:23.839Z,3.12
2018-09-27T03:26:52.147Z,2.90
2018-09-27T03:29:20.285Z,2.83
2018-09-27T03:31:48.404Z,3.10
2018-09-27T03:34:16.573Z,3.25
2018-09-27T03:36:45.220Z,3.40
2018-09-27T03:39:13.299Z,3.12
2018-09-27T03:41:41.597Z,3.20
2018-09-27T03:44:09.863Z,3.80
2018-09-27T03:46:38.131Z,3.62
2018-09-27T03:49:06.292Z,3.50
2018-09-27T03:51:34.415Z,3.12
2018-09-27T03:54:02.604Z,3.40
2018-09-27T03:56:31.357Z,3.00
2018-09-27T03:59:00.847Z,3.58
2018-09-27T04:01:29.035Z,3.62
2018-09-27T04:03:57.197Z,3.42
2018-09-27T04:06:25.388Z,4.35
2018-09-27T04:08:53.544Z,3.98
2018-09-27T04:11:22.336Z,4.20
2018-09-27T04:13:51.039Z,4.03
2018-09-27T04:16:19.118Z,3.52
2018-09-27T04:18:47.408Z,4.28
2018-09-27T04:21:15.540Z,3.92
2018-09-27T04:23:43.732Z,4.08
2018-09-27T04:26:11.819Z,4.10
2018-09-27T04:28:39.905Z,4.00
2018-09-27T04:31:08.052Z,3.98
2018-09-27T04:33:36.158Z,5.62
2018-09-27T04:36:04.299Z,4.12
2018-09-27T04:38:32.371Z,4.37
2018-09-27T04:41:00.677Z,4.22
2018-09-27T04:43:28.935Z,4.30
2018-09-27T04:45:57.142Z,3.65
2018-09-27T04:48:25.292Z,4.00
2018-09-27T04:50:53.451Z,3.87
2018-09-27T04:53:21.823Z,4.60
2018-09-27T04:55:50.192Z,4.72
2018-09-27T04:58:18.286Z,4.15
2018-09-27T05:00:46.589Z,4.70
2018-09-27T05:03:14.855Z,4.65
2018-09-27T05:05:43.112Z,4.72
2018-09-27T05:08:11.292Z,4.80
2018-09-27T05:10:39.551Z,4.10
2018-09-27T05:13:07.831Z,4.60
2018-09-27T05:15:36.054Z,4.40
2018-09-27T05:18:04.168Z,5.00
2018-09-27T05:20:32.275Z,5.08
2018-09-27T05:23:00.878Z,4.92
2018-09-27T05:25:29.091Z,5.95
2018-09-27T05:27:57.217Z,5.22
2018-09-27T05:30:25.366Z,5.08
2018-09-27T05:32:53.628Z,5.25
2018-09-27T05:35:21.808Z,5.25
2018-09-27T05:37:50.084Z,5.22
2018-09-27T05:40:18.539Z,5.17
2018-09-27T05:42:46.704Z,5.45
2018-09-27T05:45:15.075Z,4.55
2018-09-27T05:47:43.172Z,5.20
2018-09-27T05:50:11.385Z,5.08
2018-09-27T05:52:39.637Z,5.65
2018-09-27T05:55:07.936Z,5.30
2018-09-27T05:57:36.067Z,5.35
2018-09-27T06:00:04.283Z,5.22
2018-09-27T06:02:32.352Z,5.45
2018-09-27T06:05:04.955Z,5.00
2018-09-27T06:07:33.171Z,5.37
2018-09-27T06:10:01.296Z,5.62
2018-09-27T06:12:29.388Z,4.95
2018-09-27T06:14:57.731Z,4.83
2018-09-27T06:17:26.005Z,5.37
2018-09-27T06:19:54.112Z,5.47
2018-09-27T06:22:22.358Z,5.22
2018-09-27T06:24:50.534Z,4.87
2018-09-27T06:27:18.808Z,5.20
2018-09-27T06:29:46.904Z,5.47
2018-09-27T06:32:15.104Z,5.30
2018-09-27T06:34:43.432Z,5.05
2018-09-27T06:37:11.579Z,5.17
2018-09-27T06:39:39.817Z,4.87
2018-09-27T06:42:07.889Z,5.70
2018-09-27T06:44:36.018Z,5.50
2018-09-27T06:47:05.355Z,5.55
2018-09-27T06:49:33.523Z,5.42
2018-09-27T06:52:01.634Z,5.67
2018-09-27T06:54:29.715Z,5.22
2018-09-27T06:56:57.843Z,5.62
2018-09-27T06:59:25.968Z,5.40
2018-09-27T07:01:54.656Z,5.87
2018-09-27T07:04:22.884Z,5.70
2018-09-27T07:06:51.033Z,5.72
2018-09-27T07:09:19.252Z,5.67
2018-09-27T07:11:47.376Z,5.30
2018-09-27T07:14:15.464Z,5.92
2018-09-27T07:16:43.568Z,5.72
2018-09-27T07:19:11.959Z,5.42
2018-09-27T07:21:40.620Z,5.45
2018-09-27T07:24:08.886Z,5.08
2018-09-27T07:26:37.047Z,5.60
2018-09-27T07:29:05.332Z,5.15
2018-09-27T07:31:33.642Z,5.42
2018-09-27T07:34:01.804Z,5.33
2018-09-27T07:36:29.885Z,5.28
2018-09-27T07:38:58.013Z,5.10
2018-09-27T07:41:26.247Z,5.03
2018-09-27T07:43:54.891Z,5.45
2018-09-27T07:46:23.089Z,6.12
2018-09-27T07:48:51.255Z,5.70
2018-09-27T07:51:19.369Z,5.58
2018-09-27T07:53:47.672Z,5.22
2018-09-27T07:56:15.961Z,5.33
2018-09-27T07:58:44.032Z,4.83
2018-09-27T08:01:12.208Z,5.53
2018-09-27T08:03:40.428Z,5.78
2018-09-27T08:06:08.613Z,5.62
2018-09-27T08:08:36.756Z,5.78
2018-09-27T08:11:04.993Z,5.70
2018-09-27T08:13:33.054Z,5.53
2018-09-27T08:16:01.540Z,5.35
2018-09-27T08:18:29.655Z,5.60
2018-09-27T08:20:57.781Z,5.83
2018-09-27T08:23:25.804Z,5.50
2018-09-27T08:25:53.898Z,5.97
2018-09-27T08:28:22.124Z,5.62
2018-09-27T08:30:50.620Z,5.50
2018-09-27T08:33:18.661Z,5.40
2018-09-27T08:35:46.779Z,5.92
2018-09-27T08:38:15.904Z,5.80
2018-09-27T08:40:44.243Z,5.85
2018-09-27T08:43:12.410Z,5.67
2018-09-27T08:45:40.659Z,5.67
2018-09-27T08:48:08.780Z,5.60
2018-09-27T08:50:36.875Z,5.30
2018-09-27T08:53:05.072Z,5.65
2018-09-27T08:55:33.217Z,5.40
2018-09-27T08:58:01.538Z,5.60
2018-09-27T09:00:29.736Z,5.42
2018-09-27T09:02:58.007Z,5.50
2018-09-27T09:05:26.991Z,6.37
2018-09-27T09:07:55.243Z,5.60
2018-09-27T09:10:23.355Z,5.58
2018-09-27T09:12:51.633Z,5.65
2018-09-27T09:15:19.778Z,5.95
2018-09-27T09:17:48.082Z,5.45
2018-09-27T09:20:16.164Z,5.80
2018-09-27T09:22:44.254Z,5.67
2018-09-27T09:25:13.020Z,5.30
2018-09-27T09:27:41.209Z,5.58
2018-09-27T09:30:09.251Z,5.35
2018-09-27T09:32:37.532Z,5.00
2018-09-27T09:35:05.799Z,5.03
2018-09-27T09:37:34.031Z,4.95
2018-09-27T09:40:02.132Z,4.70
2018-09-27T09:42:30.857Z,4.62
2018-09-27T09:44:58.971Z,4.85
2018-09-27T09:47:27.422Z,4.20
2018-09-27T09:49:55.615Z,3.85
2018-09-27T09:52:24.193Z,3.90
2018-09-27T09:54:52.468Z,4.25
2018-09-27T09:57:21.344Z,4.15
2018-09-27T09:59:50.135Z,3.62
2018-09-27T10:02:18.894Z,3.70
2018-09-27T10:04:46.989Z,3.40
2018-09-27T10:07:15.079Z,3.42
2018-09-27T10:09:43.231Z,3.25
2018-09-27T10:12:11.428Z,3.65
2018-09-27T10:14:39.711Z,3.45
2018-09-27T10:17:07.911Z,3.40
2018-09-27T10:19:36.242Z,3.40
2018-09-27T10:22:04.380Z,3.50
2018-09-27T10:24:32.511Z,3.47
2018-09-27T10:27:00.668Z,3.20
2018-09-27T10:29:28.916Z,3.05
2018-09-27T10:31:57.150Z,2.90
2018-09-27T10:34:25.236Z,3.15
2018-09-27T10:36:53.341Z,3.20
2018-09-27T10:39:21.432Z,2.87
2018-09-27T10:41:49.555Z,3.22
2018-09-27T10:44:17.675Z,3.37
2018-09-27T10:46:45.947Z,3.22
2018-09-27T10:49:14.026Z,3.60
2018-09-27T10:51:42.276Z,3.25
2018-09-27T10:54:10.883Z,3.35
2018-09-27T10:56:39.177Z,2.67
2018-09-27T10:59:07.865Z,3.90
2018-09-27T11:01:35.975Z,3.15
2018-09-27T11:04:04.180Z,2.85
2018-09-27T11:06:32.288Z,2.70
2018-09-27T11:09:00.385Z,2.85
2018-09-27T11:11:28.575Z,2.98
2018-09-27T11:13:56.875Z,2.70
2018-09-27T11:16:25.061Z,2.55
2018-09-27T11:18:53.352Z,2.47
2018-09-27T11:21:21.427Z,2.85
2018-09-27T11:23:49.632Z,2.30
2018-09-27T11:26:17.848Z,3.05
2018-09-27T11:28:51.442Z,2.40
2018-09-27T11:31:25.822Z,2.85
2018-09-27T11:33:54.556Z,2.98
2018-09-27T11:36:22.796Z,2.90
2018-09-27T11:38:51.595Z,2.80
2018-09-27T11:41:19.684Z,2.67
2018-09-27T11:43:48.156Z,2.67
2018-09-27T11:46:16.713Z,2.50
2018-09-27T11:48:45.009Z,2.45
2018-09-27T11:51:13.220Z,2.30
2018-09-27T11:53:41.326Z,2.67
2018-09-27T11:56:09.684Z,3.45
2018-09-27T11:58:37.875Z,2.50
2018-09-27T12:01:06.008Z,2.50
2018-09-27T12:03:34.259Z,2.55
2018-09-27T12:06:02.469Z,2.55
2018-09-27T12:08:30.644Z,2.22
2018-09-27T12:10:59.243Z,2.30
2018-09-27T12:13:27.382Z,2.50
2018-09-27T12:15:55.479Z,2.55
2018-09-27T12:18:23.748Z,2.15
2018-09-27T12:20:51.920Z,2.40
2018-09-27T12:23:21.573Z,2.27
2018-09-27T12:25:50.337Z,2.00
2018-09-27T12:28:19.104Z,2.20
2018-09-27T12:30:47.348Z,2.60
2018-09-27T12:33:15.657Z,2.52
2018-09-27T12:35:43.751Z,2.10
2018-09-27T12:38:12.586Z,2.00
2018-09-27T12:40:40.676Z,2.55
2018-09-27T12:43:08.756Z,2.42
2018-09-27T12:45:37.107Z,1.92
2018-09-27T12:48:05.413Z,1.90
2018-09-27T12:50:33.635Z,1.77
2018-09-27T12:53:01.909Z,2.22
2018-09-27T12:55:30.199Z,2.05
2018-09-27T12:57:58.435Z,1.87
2018-09-27T13:00:26.743Z,1.70
2018-09-27T13:02:55.638Z,1.90
2018-09-27T13:05:24.448Z,1.60
2018-09-27T13:07:52.971Z,1.77
2018-09-27T13:10:21.121Z,1.40
2018-09-27T13:12:49.276Z,1.25
2018-09-27T13:15:17.316Z,1.62
2018-09-27T13:17:45.777Z,1.40
2018-09-27T13:20:13.853Z,1.30
2018-09-27T13:22:42.224Z,1.20
2018-09-27T13:25:10.421Z,1.52
2018-09-27T13:27:38.735Z,1.40
2018-09-27T13:30:07.123Z,1.40
2018-09-27T13:32:35.432Z,1.40
2018-09-27T13:35:04.467Z,1.40
2018-09-27T13:37:32.674Z,1.60
2018-09-27T13:40:00.851Z,1.27
2018-09-27T13:42:29.175Z,1.30
2018-09-27T13:44:57.268Z,1.20
2018-09-27T13:47:25.511Z,1.15
2018-09-27T13:49:54.591Z,1.22
2018-09-27T13:52:23.812Z,1.27
2018-09-27T13:54:52.045Z,1.17
2018-09-27T13:57:20.357Z,1.30
2018-09-27T13:59:49.403Z,1.50
2018-09-27T14:02:18.183Z,1.22
2018-09-27T14:04:46.346Z,1.40
2018-09-27T14:07:14.618Z,1.17
2018-09-27T14:09:42.972Z,1.37
2018-09-27T14:12:11.291Z,1.07
2018-09-27T14:14:39.426Z,1.00
2018-09-27T14:17:07.521Z,1.17
2018-09-27T14:19:35.892Z,1.20
2018-09-27T14:22:04.089Z,1.50
2018-09-27T14:24:32.247Z,1.40
2018-09-27T14:27:01.297Z,1.40
2018-09-27T14:29:29.397Z,1.37
2018-09-27T14:31:57.536Z,1.40
2018-09-27T14:34:25.784Z,1.20
2018-09-27T14:36:53.948Z,1.20
2018-09-27T14:39:22.056Z,1.55
2018-09-27T14:41:51.009Z,1.20
2018-09-27T14:44:19.191Z,1.10
2018-09-27T14:46:47.423Z,1.25
2018-09-27T14:49:15.541Z,1.45
2018-09-27T14:51:44.697Z,1.32
2018-09-27T14:54:13.287Z,1.30
2018-09-27T14:56:41.496Z,1.40
2018-09-27T14:59:10.697Z,1.20
2018-09-27T15:01:39.897Z,1.40
2018-09-27T15:04:08.224Z,1.50
2018-09-27T15:06:36.575Z,1.22
2018-09-27T15:09:06.345Z,0.90
2018-09-27T15:11:34.600Z,1.10
2018-09-27T15:14:02.691Z,1.12
2018-09-27T15:16:30.990Z,1.10
2018-09-27T15:18:59.049Z,1.07
2018-09-27T15:21:27.269Z,0.95
2018-09-27T15:23:55.393Z,1.00
2018-09-27T15:26:23.581Z,1.00
2018-09-27T15:28:51.781Z,2.10
2018-09-27T15:31:20.600Z,0.85
2018-09-27T15:33:51.006Z,1.00
2018-09-27T15:36:21.809Z,1.00
2018-09-27T15:38:51.072Z,1.10
2018-09-27T15:41:19.153Z,1.00
2018-09-27T15:43:47.250Z,1.02
2018-09-27T15:46:15.387Z,0.88
2018-09-27T15:48:43.694Z,0.80
2018-09-27T15:51:11.900Z,1.00
2018-09-27T15:53:41.695Z,1.10
2018-09-27T15:56:10.240Z,1.30
2018-09-27T15:58:38.397Z,1.12
2018-09-27T16:01:06.812Z,0.90
2018-09-27T16:03:34.988Z,1.20
2018-09-27T16:06:03.268Z,1.25
2018-09-27T16:08:31.970Z,1.30
2018-09-27T16:11:00.256Z,1.35
2018-09-27T16:13:28.863Z,1.40
2018-09-27T16:15:57.196Z,1.12
2018-09-27T16:18:25.283Z,1.02
2018-09-27T16:20:53.508Z,1.02
2018-09-27T16:23:21.644Z,1.15
2018-09-27T16:25:49.980Z,1.20
2018-09-27T16:28:18.220Z,1.12
2018-09-27T16:30:46.316Z,1.10
2018-09-27T16:33:14.399Z,10.30
2018-09-27T16:35:43.278Z,1.50
2018-09-27T16:38:12.072Z,1.60
2018-09-27T16:40:40.263Z,1.17
2018-09-27T16:43:09.258Z,1.10
2018-09-27T16:45:38.061Z,1.20
2018-09-27T16:48:06.268Z,0.98
2018-09-27T16:50:34.489Z,1.00
2018-09-27T16:53:02.788Z,1.35
2018-09-27T16:55:31.044Z,7.50
2018-09-27T16:57:59.331Z,3.40
2018-09-27T17:00:27.432Z,2.30
2018-09-27T17:02:55.656Z,1.87
2018-09-27T17:05:23.935Z,1.30
2018-09-27T17:07:52.029Z,1.15
2018-09-27T17:10:20.184Z,1.25
2018-09-27T17:12:48.305Z,1.40
2018-09-27T17:15:16.676Z,1.10
2018-09-27T17:17:44.873Z,1.15
2018-09-27T17:20:12.976Z,1.30
2018-09-27T17:22:41.747Z,1.30
2018-09-27T17:25:09.864Z,6.37
2018-09-27T17:27:38.131Z,4.08
2018-09-27T17:30:06.537Z,11.97
2018-09-27T17:32:34.763Z,5.25
2018-09-27T17:35:03.830Z,2.40
2018-09-27T17:37:32.066Z,1.90
2018-09-27T17:40:00.731Z,1.42
2018-09-27T17:42:28.819Z,1.32
2018-09-27T17:44:57.076Z,1.20
2018-09-27T17:47:25.374Z,1.32
2018-09-27T17:49:53.701Z,1.75
2018-09-27T17:52:21.817Z,1.55
2018-09-27T17:54:50.601Z,2.80
2018-09-27T17:57:21.943Z,7.30
2018-09-27T17:59:51.847Z,8.43
2018-09-27T18:02:20.623Z,1.60
2018-09-27T18:04:48.792Z,1.90
2018-09-27T18:07:17.089Z,1.72
2018-09-27T18:09:45.237Z,1.60
2018-09-27T18:12:13.319Z,1.80
2018-09-27T18:14:41.501Z,1.42
2018-09-27T18:17:10.097Z,2.50
2018-09-27T18:19:38.259Z,2.65
2018-09-27T18:22:06.539Z,2.30
2018-09-27T18:24:34.741Z,2.45
2018-09-27T18:27:03.020Z,2.20
2018-09-27T18:29:31.273Z,2.22
2018-09-27T18:31:59.414Z,2.02
2018-09-27T18:34:27.745Z,2.27
2018-09-27T18:36:55.844Z,1.87
2018-09-27T18:39:24.179Z,1.50
2018-09-27T18:41:52.410Z,1.40
2018-09-27T18:44:20.735Z,1.82
2018-09-27T18:46:48.998Z,1.80
2018-09-27T18:49:17.241Z,1.50
2018-09-27T18:51:45.461Z,1.80
2018-09-27T18:54:13.720Z,1.40
2018-09-27T18:56:41.805Z,1.50
2018-09-27T18:59:10.193Z,1.40
2018-09-27T19:01:39.027Z,1.52
2018-09-27T19:04:07.205Z,1.22
2018-09-27T19:06:36.075Z,1.50
2018-09-27T19:09:05.212Z,1.42
2018-09-27T19:11:34.044Z,1.40
2018-09-27T19:14:02.225Z,1.47
2018-09-27T19:16:30.957Z,1.60
2018-09-27T19:18:59.169Z,1.50
2018-09-27T19:21:27.261Z,1.55
2018-09-27T19:23:55.645Z,1.10
2018-09-27T19:26:23.845Z,1.25
2018-09-27T19:28:51.985Z,1.22
2018-09-27T19:31:20.228Z,1.30
2018-09-27T19:33:48.362Z,1.52
2018-09-27T19:36:16.589Z,1.22
2018-09-27T19:38:44.785Z,1.25
2018-09-27T19:41:12.900Z,1.57
2018-09-27T19:46:16.705Z,1.47
2018-09-27T19:48:44.874Z,1.70
2018-09-27T19:51:13.212Z,1.47
2018-09-27T19:53:41.340Z,4.08
2018-09-27T19:56:10.033Z,3.00
2018-09-27T19:58:38.233Z,3.20
2018-09-27T20:01:06.290Z,1.95
2018-09-27T20:03:34.405Z,1.60
2018-09-27T20:06:02.674Z,1.80
2018-09-27T20:08:30.839Z,2.20
2018-09-27T20:10:59.134Z,3.20
2018-09-27T20:13:27.221Z,3.47
2018-09-27T20:15:55.652Z,3.40
2018-09-27T20:18:23.755Z,1.82
2018-09-27T20:20:52.045Z,2.08
2018-09-27T20:23:20.124Z,13.95
2018-09-27T20:25:48.296Z,10.25
2018-09-27T20:28:16.598Z,5.30
2018-09-27T20:30:44.871Z,2.50
2018-09-27T20:33:12.976Z,3.00
2018-09-27T20:35:41.141Z,2.00
2018-09-27T20:38:09.380Z,1.85
2018-09-27T20:40:37.608Z,1.95
2018-09-27T20:43:05.985Z,1.98
2018-09-27T20:45:34.682Z,1.90
2018-09-27T20:48:02.904Z,1.77
2018-09-27T20:50:31.128Z,1.70
2018-09-27T20:52:59.267Z,7.53
2018-09-27T20:55:27.363Z,3.60
2018-09-27T20:57:55.501Z,9.70
2018-09-27T21:00:23.592Z,2.42
2018-09-27T21:02:51.757Z,2.50
2018-09-27T21:05:19.884Z,7.80
2018-09-27T21:07:47.989Z,3.50
2018-09-27T21:10:16.107Z,5.05
2018-09-27T21:12:44.252Z,2.80
2018-09-27T21:15:12.364Z,2.45
2018-09-27T21:17:40.435Z,2.52
2018-09-27T21:20:09.272Z,2.62
2018-09-27T21:22:37.446Z,2.42
2018-09-27T21:25:05.584Z,2.70
2018-09-27T21:27:33.763Z,2.72
2018-09-27T21:30:02.088Z,2.80
2018-09-27T21:32:30.244Z,2.98
2018-09-27T21:34:58.589Z,2.87
2018-09-27T21:37:26.864Z,3.12
2018-09-27T21:39:55.316Z,2.95
2018-09-27T21:42:23.481Z,2.90
2018-09-27T21:44:52.972Z,3.10
2018-09-27T21:47:21.057Z,3.15
2018-09-27T21:49:49.161Z,2.98
2018-09-27T21:52:17.310Z,2.85
2018-09-27T21:54:45.459Z,2.90
2018-09-27T21:57:13.717Z,2.65
2018-09-27T21:59:42.004Z,3.15
2018-09-27T22:02:10.104Z,3.10
2018-09-27T22:04:38.211Z,3.02
2018-09-27T22:07:06.556Z,2.83
2018-09-27T22:09:34.646Z,3.10
2018-09-27T22:12:03.628Z,2.80
2018-09-27T22:14:31.815Z,3.02
2018-09-27T22:16:59.952Z,3.25
2018-09-27T22:19:28.062Z,2.90
2018-09-27T22:21:56.431Z,2.87
2018-09-27T22:24:24.592Z,3.30
2018-09-27T22:26:52.732Z,3.05
2018-09-27T22:29:21.041Z,3.52
2018-09-27T22:31:49.163Z,4.00
2018-09-27T22:34:17.307Z,3.35
2018-09-27T22:36:45.719Z,3.15
2018-09-27T22:39:13.816Z,3.20
2018-09-27T22:41:42.075Z,3.45
2018-09-27T22:44:10.159Z,4.30
2018-09-27T22:46:38.295Z,3.58
2018-09-27T22:49:06.660Z,3.75
2018-09-27T22:51:35.419Z,3.60
2018-09-27T22:54:03.672Z,3.65
2018-09-27T22:56:32.468Z,3.58
2018-09-27T22:59:00.948Z,3.70
2018-09-27T23:01:29.220Z,3.80
2018-09-27T23:03:57.291Z,3.58
2018-09-27T23:06:25.507Z,3.45
2018-09-27T23:08:53.939Z,3.67
2018-09-27T23:11:22.032Z,3.92
2018-09-27T23:13:50.196Z,3.95
2018-09-27T23:16:18.407Z,3.85
2018-09-27T23:18:46.652Z,3.83
2018-09-27T23:21:14.820Z,4.05
2018-09-27T23:23:42.903Z,3.42
2018-09-27T23:26:10.976Z,3.50
2018-09-27T23:28:39.071Z,4.20
2018-09-27T23:31:07.207Z,4.33
2018-09-27T23:33:35.325Z,4.50
2018-09-27T23:36:03.564Z,4.28
2018-09-27T23:38:31.734Z,4.28
2018-09-27T23:41:00.022Z,3.83
2018-09-27T23:43:28.112Z,3.92
2018-09-27T23:45:56.848Z,4.25
2018-09-27T23:48:24.936Z,3.87
2018-09-27T23:50:53.185Z,4.08
2018-09-27T23:53:21.288Z,4.20
2018-09-27T23:55:49.504Z,3.42
2018-09-27T23:58:17.760Z,3.80
